Time;durP1;ratioP1;P1;durP2;ratioP2;P2;SDS_P1;SDS_P2;PMS_P1;PMS_P2;Temp;Humidity;BMP_temperature;BMP_pressure;BME280_temperature;BME280_humidity;BME280_pressure;Samples;Min_cycle;Max_cycle;Signal;HPM_P1;HPM_P2
2022/06/09 00:02:01;;;;;;;22.55;11.65;;;16.30;93.80;;;;;;5040885;28;20025;-73
2022/06/09 00:04:34;;;;;;;23.65;12.30;;;16.40;93.90;;;;;;5039235;28;20052;-71
2022/06/09 00:07:10;;;;;;;22.20;13.05;;;16.30;93.80;;;;;;5039851;28;20108;-72
2022/06/09 00:09:41;;;;;;;16.60;10.52;;;16.30;93.80;;;;;;5051349;28;20029;-73
2022/06/09 00:12:08;;;;;;;21.08;12.48;;;16.20;93.90;;;;;;5051034;28;20032;-71
2022/06/09 00:14:35;;;;;;;16.67;10.38;;;16.10;93.90;;;;;;5051106;28;20429;-72
2022/06/09 00:17:01;;;;;;;21.88;12.80;;;16.10;93.90;;;;;;5051109;28;20029;-71
2022/06/09 00:19:27;;;;;;;22.17;11.63;;;16.10;93.90;;;;;;5050683;28;20021;-71
2022/06/09 00:21:53;;;;;;;26.65;12.98;;;16.10;94.00;;;;;;5050808;28;20024;-72
2022/06/09 00:24:19;;;;;;;22.90;12.07;;;16.10;94.00;;;;;;5042883;28;20025;-74
2022/06/09 00:26:45;;;;;;;23.35;11.63;;;16.10;94.00;;;;;;5044481;28;20029;-72
2022/06/09 00:29:11;;;;;;;22.92;12.52;;;16.10;94.00;;;;;;5041839;28;20021;-73
2022/06/09 00:31:39;;;;;;;20.80;10.60;;;16.00;94.10;;;;;;5044777;28;20013;-72
2022/06/09 00:34:05;;;;;;;20.38;11.45;;;16.00;94.10;;;;;;5041731;28;20048;-72
2022/06/09 00:36:33;;;;;;;21.85;11.13;;;16.00;94.10;;;;;;5043070;28;20718;-72
2022/06/09 00:38:58;;;;;;;19.90;10.80;;;16.00;94.20;;;;;;5041430;28;20146;-72
2022/06/09 00:41:25;;;;;;;23.85;12.20;;;16.00;94.20;;;;;;5041321;28;20433;-72
2022/06/09 00:43:51;;;;;;;27.92;12.45;;;16.00;94.20;;;;;;5041848;28;20025;-72
2022/06/09 00:46:28;;;;;;;22.90;11.02;;;16.00;94.20;;;;;;5043564;28;20029;-71
2022/06/09 00:48:55;;;;;;;17.70;10.77;;;15.90;94.20;;;;;;5042237;28;20072;-71
2022/06/09 00:51:44;;;;;;;20.85;9.90;;;15.90;94.20;;;;;;5037203;28;20036;-72
2022/06/09 00:54:20;;;;;;;22.95;10.48;;;15.90;94.30;;;;;;5043508;28;20022;-72
2022/06/09 00:57:11;;;;;;;22.90;10.20;;;15.90;94.40;;;;;;5041217;28;20021;-73
2022/06/09 00:59:41;;;;;;;18.13;9.65;;;15.90;94.40;;;;;;5040516;28;20115;-72
2022/06/09 01:02:10;;;;;;;20.38;10.30;;;15.80;94.50;;;;;;5043227;28;20355;-73
2022/06/09 01:04:36;;;;;;;19.65;7.80;;;15.80;94.50;;;;;;5039945;28;20025;-72
2022/06/09 01:07:20;;;;;;;21.65;9.25;;;15.80;94.60;;;;;;5036532;28;20017;-72
2022/06/09 01:09:47;;;;;;;21.63;8.90;;;15.80;94.70;;;;;;5040633;28;20052;-73
2022/06/09 01:12:29;;;;;;;19.75;9.18;;;15.80;94.70;;;;;;5055876;28;20031;-72
2022/06/09 01:15:04;;;;;;;16.90;8.68;;;15.70;94.90;;;;;;5050960;28;20028;-71
2022/06/09 01:17:45;;;;;;;22.85;7.78;;;15.70;94.90;;;;;;5049625;28;20522;-72
2022/06/09 01:20:57;;;;;;;22.13;7.78;;;15.70;94.90;;;;;;5039145;28;20051;-71
2022/06/09 01:23:49;;;;;;;19.05;8.40;;;15.70;94.90;;;;;;4968834;28;20039;-72
2022/06/09 01:26:52;;;;;;;17.17;7.85;;;15.70;94.90;;;;;;5025694;28;20148;-73
2022/06/09 01:29:33;;;;;;;19.90;8.60;;;15.80;94.80;;;;;;5047589;28;20075;-72
2022/06/09 01:32:23;;;;;;;21.42;8.57;;;15.80;94.60;;;;;;5029638;28;20891;-72
2022/06/09 01:35:15;;;;;;;22.58;8.30;;;15.80;94.50;;;;;;5048087;28;20045;-71
2022/06/09 01:37:48;;;;;;;19.92;8.57;;;15.80;94.40;;;;;;5038071;28;20037;-72
2022/06/09 01:40:16;;;;;;;27.83;9.10;;;15.80;94.30;;;;;;5048023;28;20009;-72
2022/06/09 01:42:45;;;;;;;21.02;8.38;;;15.80;94.30;;;;;;5049325;28;20024;-71
2022/06/09 01:45:24;;;;;;;18.85;6.78;;;15.80;94.30;;;;;;5049179;28;20044;-71
2022/06/09 01:47:55;;;;;;;21.10;7.93;;;15.90;94.40;;;;;;5048928;28;20029;-71
2022/06/09 01:50:47;;;;;;;22.98;7.40;;;15.90;94.40;;;;;;5048504;28;20086;-71
2022/06/09 01:53:19;;;;;;;18.00;8.32;;;15.90;94.30;;;;;;5034524;28;20041;-72
2022/06/09 01:55:49;;;;;;;17.38;8.10;;;15.90;94.50;;;;;;5048101;28;20186;-72
2022/06/09 01:58:17;;;;;;;;;;;15.90;94.10;;;;;;5048514;28;20036;-73
2022/06/09 02:00:44;;;;;;;19.27;8.40;;;16.00;94.00;;;;;;5048233;28;20409;-72
2022/06/09 02:03:17;;;;;;;18.23;8.32;;;16.00;93.90;;;;;;5049008;28;20025;-72
2022/06/09 02:05:47;;;;;;;17.05;8.00;;;15.90;94.20;;;;;;5048190;28;20128;-72
2022/06/09 02:08:15;;;;;;;20.85;7.85;;;15.90;94.20;;;;;;5048124;28;20095;-71
2022/06/09 02:10:46;;;;;;;25.20;9.13;;;15.90;93.80;;;;;;5048256;28;20036;-72
2022/06/09 02:13:23;;;;;;;18.08;8.13;;;15.90;93.80;;;;;;5039757;28;20074;-72
2022/06/09 02:15:52;;;;;;;21.80;8.90;;;15.90;93.70;;;;;;5048454;28;20535;-72
2022/06/09 02:18:22;;;;;;;20.63;8.50;;;15.80;93.60;;;;;;5048589;28;20108;-72
2022/06/09 02:20:57;;;;;;;21.63;9.07;;;15.80;93.60;;;;;;5048436;28;20037;-72
2022/06/09 02:23:22;;;;;;;17.58;8.25;;;15.80;93.50;;;;;;5048360;28;20025;-72
2022/06/09 02:25:48;;;;;;;20.17;8.50;;;15.80;93.60;;;;;;5048453;28;20025;-72
2022/06/09 02:28:14;;;;;;;23.95;10.05;;;15.70;93.50;;;;;;5048384;28;20044;-72
2022/06/09 02:30:40;;;;;;;17.88;8.55;;;15.70;93.50;;;;;;5047765;28;20021;-72
2022/06/09 02:33:07;;;;;;;23.42;9.60;;;15.70;93.50;;;;;;5048702;28;20131;-72
2022/06/09 02:35:33;;;;;;;19.05;9.02;;;15.60;93.40;;;;;;5048190;28;20088;-72
2022/06/09 02:38:00;;;;;;;18.52;8.43;;;15.60;93.50;;;;;;5046643;28;20029;-72
2022/06/09 02:40:28;;;;;;;18.65;8.52;;;15.60;93.60;;;;;;5048010;28;20021;-73
2022/06/09 02:42:54;;;;;;;16.90;8.68;;;15.50;93.70;;;;;;5037534;28;20013;-73
2022/06/09 02:45:20;;;;;;;19.50;8.57;;;15.50;93.80;;;;;;5047828;28;20040;-73
2022/06/09 02:47:45;;;;;;;20.45;10.10;;;15.50;93.90;;;;;;5048051;28;20119;-73
2022/06/09 02:50:12;;;;;;;25.10;10.80;;;15.50;94.00;;;;;;5048405;28;20096;-72
2022/06/09 02:52:38;;;;;;;20.10;8.02;;;15.40;94.10;;;;;;5047770;28;20009;-73
2022/06/09 02:55:04;;;;;;;20.95;11.35;;;15.40;94.30;;;;;;5048159;28;20412;-71
2022/06/09 02:57:30;;;;;;;24.42;10.30;;;15.30;94.40;;;;;;5047740;28;20028;-72
2022/06/09 02:59:55;;;;;;;24.45;10.02;;;15.30;94.60;;;;;;5047938;28;20044;-72
2022/06/09 03:02:22;;;;;;;28.92;10.45;;;15.20;94.70;;;;;;5048003;28;20025;-73
2022/06/09 03:04:48;;;;;;;26.45;10.30;;;15.20;94.80;;;;;;5048281;28;20029;-72
2022/06/09 03:07:14;;;;;;;20.85;8.52;;;15.20;95.20;;;;;;5047884;28;20017;-73
2022/06/09 03:09:40;;;;;;;28.05;11.35;;;15.10;94.90;;;;;;5049620;28;20112;-72
2022/06/09 03:12:06;;;;;;;29.90;10.07;;;15.10;94.90;;;;;;5051684;28;20029;-73
2022/06/09 03:14:33;;;;;;;26.30;10.55;;;15.10;95.10;;;;;;5051613;28;20035;-72
2022/06/09 03:17:00;;;;;;;26.40;8.30;;;15.00;95.10;;;;;;5051984;28;20031;-72
2022/06/09 03:19:26;;;;;;;25.27;9.48;;;15.00;95.00;;;;;;5051974;28;20061;-72
2022/06/09 03:21:51;;;;;;;20.50;9.73;;;15.00;95.00;;;;;;5052059;28;20097;-73
2022/06/09 03:24:17;;;;;;;26.02;10.55;;;15.00;95.10;;;;;;5051731;28;20103;-72
2022/06/09 03:26:43;;;;;;;22.33;9.30;;;15.00;95.10;;;;;;5051488;28;20893;-72
2022/06/09 03:29:09;;;;;;;27.13;8.57;;;15.00;95.20;;;;;;5051882;28;20154;-72
2022/06/09 03:31:34;;;;;;;20.23;9.93;;;15.00;95.20;;;;;;5052712;28;20067;-73
2022/06/09 03:34:02;;;;;;;24.83;9.98;;;15.00;95.30;;;;;;5053344;28;20471;-72
2022/06/09 03:36:28;;;;;;;19.73;8.65;;;15.00;95.30;;;;;;5055019;28;20139;-72
2022/06/09 03:38:54;;;;;;;19.08;9.00;;;15.00;95.30;;;;;;5057433;28;20025;-72
2022/06/09 03:41:19;;;;;;;24.10;9.77;;;15.00;95.30;;;;;;5051555;28;20025;-71
2022/06/09 03:43:45;;;;;;;23.38;9.93;;;15.10;95.30;;;;;;5051339;28;20064;-71
2022/06/09 03:46:12;;;;;;;23.98;9.48;;;15.10;95.30;;;;;;5051647;28;20484;-71
2022/06/09 03:48:38;;;;;;;25.58;9.90;;;15.10;95.20;;;;;;5050918;28;20025;-72
2022/06/09 03:51:03;;;;;;;24.65;10.25;;;15.10;95.20;;;;;;5049737;28;20490;-72
2022/06/09 03:53:29;;;;;;;25.90;9.90;;;15.10;95.20;;;;;;5050977;28;20816;-72
2022/06/09 03:55:56;;;;;;;19.00;9.45;;;15.10;95.30;;;;;;5051586;28;20087;-71
2022/06/09 03:58:22;;;;;;;21.25;9.30;;;15.10;95.40;;;;;;5051202;28;20453;-72
2022/06/09 04:00:47;;;;;;;21.48;9.35;;;15.20;95.40;;;;;;5051229;28;20108;-71
2022/06/09 04:03:13;;;;;;;25.13;9.93;;;15.20;95.30;;;;;;5051052;28;20021;-71
2022/06/09 04:05:41;;;;;;;29.70;9.25;;;15.20;95.40;;;;;;5050626;28;20036;-71
2022/06/09 04:08:12;;;;;;;20.75;7.70;;;15.30;95.30;;;;;;5047410;28;20033;-72
2022/06/09 04:10:37;;;;;;;22.40;8.60;;;15.30;95.40;;;;;;5050852;28;20471;-71
2022/06/09 04:13:03;;;;;;;26.73;11.20;;;15.30;95.40;;;;;;5051000;28;20021;-71
2022/06/09 04:15:30;;;;;;;22.92;9.73;;;15.30;95.70;;;;;;5050294;28;20029;-71
2022/06/09 04:17:55;;;;;;;20.35;8.52;;;15.40;95.40;;;;;;5050738;28;20089;-71
2022/06/09 04:20:24;;;;;;;24.92;9.80;;;15.40;95.40;;;;;;5050263;28;20021;-72
2022/06/09 04:22:50;;;;;;;27.20;10.05;;;15.40;95.40;;;;;;5050963;28;20481;-72
2022/06/09 04:25:17;;;;;;;18.35;7.95;;;15.50;95.30;;;;;;5050172;28;20475;-71
2022/06/09 04:27:44;;;;;;;23.10;8.68;;;15.50;95.30;;;;;;5050648;28;20024;-72
2022/06/09 04:30:10;;;;;;;25.27;8.35;;;15.50;95.30;;;;;;5050232;28;20070;-72
2022/06/09 04:32:36;;;;;;;24.35;8.52;;;15.50;95.20;;;;;;5050175;28;20158;-71
2022/06/09 04:35:02;;;;;;;25.48;9.15;;;15.60;95.20;;;;;;5050461;28;20136;-72
2022/06/09 04:38:15;;;;;;;25.63;8.70;;;15.60;95.20;;;;;;5050135;28;20025;-71
2022/06/09 04:40:15;;;;;;;18.10;7.38;;;15.60;95.10;;;;;;5042300;28;20033;-73
2022/06/09 04:42:41;;;;;;;17.95;8.48;;;15.60;95.20;;;;;;5050168;28;20475;-71
2022/06/09 04:45:07;;;;;;;21.00;9.00;;;15.70;95.20;;;;;;5050448;28;20025;-72
2022/06/09 04:47:33;;;;;;;20.83;8.15;;;15.70;95.10;;;;;;5049022;28;20360;-73
2022/06/09 04:49:59;;;;;;;16.20;7.18;;;15.70;95.20;;;;;;5049533;28;20969;-71
2022/06/09 04:52:25;;;;;;;24.45;8.32;;;15.80;95.20;;;;;;5050450;28;20025;-72
2022/06/09 04:54:51;;;;;;;23.30;7.60;;;15.90;95.10;;;;;;5049978;28;20487;-71
2022/06/09 04:57:16;;;;;;;15.10;6.25;;;15.90;94.90;;;;;;5050201;28;20047;-73
2022/06/09 04:59:42;;;;;;;15.90;7.40;;;15.80;94.80;;;;;;5049902;28;20028;-73
2022/06/09 05:02:07;;;;;;;16.70;6.18;;;15.80;94.90;;;;;;5050144;28;20032;-72
2022/06/09 05:04:33;;;;;;;21.48;7.28;;;15.80;95.20;;;;;;5050280;28;20055;-72
2022/06/09 05:06:59;;;;;;;17.00;6.85;;;15.90;94.90;;;;;;5049601;28;20028;-72
2022/06/09 05:09:25;;;;;;;22.25;7.82;;;15.90;94.90;;;;;;5050289;28;20028;-73
2022/06/09 05:11:50;;;;;;;20.73;6.43;;;15.90;94.80;;;;;;5047772;28;20116;-72
2022/06/09 05:14:16;;;;;;;14.52;6.00;;;16.00;94.80;;;;;;5049657;28;20024;-71
2022/06/09 05:16:41;;;;;;;19.25;6.78;;;16.10;94.90;;;;;;5049369;28;20037;-72
2022/06/09 05:19:07;;;;;;;16.33;6.22;;;16.20;94.70;;;;;;5050137;28;20023;-73
2022/06/09 05:21:33;;;;;;;15.27;4.93;;;16.20;94.60;;;;;;5049143;28;20025;-72
2022/06/09 05:23:58;;;;;;;16.13;6.22;;;16.30;94.20;;;;;;5048147;28;20401;-71
2022/06/09 05:26:24;;;;;;;11.57;4.85;;;16.40;94.30;;;;;;5049291;28;20093;-72
2022/06/09 05:28:49;;;;;;;12.20;5.53;;;16.50;94.20;;;;;;5049518;28;20078;-73
2022/06/09 05:31:15;;;;;;;10.43;4.93;;;16.60;94.20;;;;;;5049473;28;20028;-74
2022/06/09 05:33:42;;;;;;;12.73;5.82;;;16.60;94.10;;;;;;5049366;28;20029;-72
2022/06/09 05:36:08;;;;;;;10.75;4.00;;;16.70;94.10;;;;;;5044170;28;20488;-72
2022/06/09 05:46:48;;;;;;;9.90;4.75;;;16.80;93.70;;;;;;5049341;28;20028;-73
2022/06/09 05:49:16;;;;;;;14.70;5.30;;;16.90;93.20;;;;;;5049057;28;20024;-73
2022/06/09 05:51:43;;;;;;;10.20;3.75;;;16.90;93.20;;;;;;5049011;28;20020;-73
2022/06/09 05:54:09;;;;;;;10.82;3.70;;;16.90;92.90;;;;;;5048921;28;20028;-72
2022/06/09 05:56:37;;;;;;;10.45;4.10;;;16.80;92.80;;;;;;5049464;28;20033;-71
2022/06/09 05:59:03;;;;;;;12.70;5.00;;;16.80;92.60;;;;;;5050334;28;20571;-72
2022/06/09 06:01:28;;;;;;;8.15;3.22;;;16.80;92.70;;;;;;5051785;28;20104;-72
2022/06/09 06:03:54;;;;;;;9.98;2.72;;;17.00;92.90;;;;;;5055231;28;20047;-73
2022/06/09 06:06:35;;;;;;;8.07;2.92;;;17.10;91.20;;;;;;5049124;28;20064;-73
2022/06/09 06:09:08;;;;;;;9.60;3.33;;;17.20;91.50;;;;;;5048548;28;20100;-72
2022/06/09 06:11:35;;;;;;;6.47;1.92;;;17.30;89.70;;;;;;5048657;28;20033;-73
2022/06/09 06:14:02;;;;;;;5.55;2.42;;;17.40;89.60;;;;;;5043646;28;20024;-71
2022/06/09 06:16:27;;;;;;;6.07;1.88;;;17.40;90.10;;;;;;5044960;28;20485;-72
2022/06/09 06:18:54;;;;;;;9.68;3.22;;;17.40;88.40;;;;;;5048822;28;20071;-73
2022/06/09 06:21:21;;;;;;;9.40;2.58;;;17.60;89.90;;;;;;5048684;28;20380;-72
2022/06/09 06:23:47;;;;;;;10.63;3.38;;;17.60;88.00;;;;;;5048548;28;20517;-73
2022/06/09 06:26:13;;;;;;;8.38;2.83;;;17.70;90.10;;;;;;5048690;28;20045;-72
2022/06/09 06:28:39;;;;;;;6.95;2.17;;;17.80;89.50;;;;;;5048127;28;20463;-70
2022/06/09 06:31:04;;;;;;;12.50;3.42;;;17.90;89.30;;;;;;5048792;28;20029;-72
2022/06/09 06:33:30;;;;;;;11.05;2.78;;;18.00;89.50;;;;;;5047838;28;20528;-71
2022/06/09 06:35:55;;;;;;;8.65;2.80;;;18.10;90.40;;;;;;5048246;28;20048;-71
2022/06/09 06:38:22;;;;;;;9.32;2.90;;;18.10;89.10;;;;;;5047550;28;20017;-71
2022/06/09 06:40:48;;;;;;;9.35;2.33;;;18.10;89.80;;;;;;5048253;28;20021;-71
2022/06/09 06:43:14;;;;;;;9.77;2.70;;;18.30;90.30;;;;;;5047632;28;20506;-71
2022/06/09 06:45:40;;;;;;;9.73;2.67;;;18.40;90.10;;;;;;5047785;28;20113;-71
2022/06/09 06:48:06;;;;;;;8.18;2.30;;;18.40;88.80;;;;;;5047678;28;20534;-73
2022/06/09 06:50:32;;;;;;;8.35;2.70;;;18.50;89.40;;;;;;5046960;28;20120;-70
2022/06/09 06:52:58;;;;;;;9.35;2.20;;;18.60;89.20;;;;;;5048959;28;20090;-71
2022/06/09 06:55:24;;;;;;;6.22;2.17;;;18.60;88.40;;;;;;5048276;28;20029;-72
2022/06/09 06:57:50;;;;;;;5.88;2.10;;;18.70;87.40;;;;;;5039195;28;20022;-72
2022/06/09 07:00:18;;;;;;;5.93;1.95;;;18.80;87.00;;;;;;5047938;28;20505;-71
2022/06/09 07:02:45;;;;;;;5.50;2.17;;;18.80;85.80;;;;;;5046812;28;20032;-71
2022/06/09 07:05:11;;;;;;;6.75;3.65;;;18.80;85.60;;;;;;5048343;28;20131;-71
2022/06/09 07:07:39;;;;;;;5.78;2.03;;;18.90;85.10;;;;;;5047675;28;20399;-71
2022/06/09 07:10:05;;;;;;;8.25;1.80;;;18.90;85.30;;;;;;5047667;28;20021;-71
2022/06/09 07:12:31;;;;;;;8.23;2.05;;;19.00;84.50;;;;;;5047268;28;20028;-70
2022/06/09 07:14:57;;;;;;;7.97;2.00;;;19.10;83.00;;;;;;5047936;28;20037;-70
2022/06/09 07:17:24;;;;;;;6.55;2.20;;;19.10;84.00;;;;;;5043152;28;20032;-73
2022/06/09 07:19:50;;;;;;;7.43;2.15;;;19.00;83.40;;;;;;5034194;28;20116;-73
2022/06/09 07:22:16;;;;;;;8.07;2.22;;;19.20;83.10;;;;;;5035705;28;20187;-72
2022/06/09 07:24:42;;;;;;;7.70;2.05;;;19.30;82.50;;;;;;5036713;28;20029;-72
2022/06/09 07:27:07;;;;;;;5.75;1.30;;;19.30;80.70;;;;;;5047533;28;20032;-73
2022/06/09 07:29:34;;;;;;;8.30;2.00;;;19.40;79.00;;;;;;5047494;28;20037;-73
2022/06/09 07:32:01;;;;;;;4.93;1.95;;;19.40;79.20;;;;;;5047343;28;20025;-72
2022/06/09 07:34:27;;;;;;;4.55;1.88;;;19.50;80.00;;;;;;5046582;28;20056;-72
2022/06/09 07:36:54;;;;;;;4.10;1.75;;;19.60;79.20;;;;;;5046755;28;20040;-72
2022/06/09 07:39:20;;;;;;;6.43;1.77;;;19.70;79.80;;;;;;5045881;28;20090;-72
2022/06/09 07:41:46;;;;;;;9.48;3.10;;;19.90;77.30;;;;;;5046873;28;20111;-71
2022/06/09 07:44:12;;;;;;;5.53;1.80;;;19.90;76.60;;;;;;5047558;28;20032;-73
2022/06/09 07:46:39;;;;;;;5.70;2.08;;;20.00;77.10;;;;;;5047245;28;20048;-72
2022/06/09 07:49:06;;;;;;;8.02;2.17;;;20.20;76.70;;;;;;5046861;28;20342;-71
2022/06/09 07:51:32;;;;;;;6.68;2.15;;;20.30;76.10;;;;;;5047210;28;20021;-71
2022/06/09 07:53:58;;;;;;;6.82;2.00;;;20.30;75.40;;;;;;5047387;28;20031;-71
2022/06/09 07:56:23;;;;;;;6.07;1.23;;;20.40;75.60;;;;;;5048309;28;20410;-71
2022/06/09 07:58:49;;;;;;;7.80;2.55;;;20.40;73.60;;;;;;5050436;28;20335;-72
2022/06/09 08:01:17;;;;;;;6.43;2.00;;;20.40;74.00;;;;;;5050820;28;20166;-71
2022/06/09 08:03:43;;;;;;;7.00;2.03;;;20.40;74.00;;;;;;5050880;28;20476;-71
2022/06/09 08:06:10;;;;;;;7.35;1.95;;;20.60;74.10;;;;;;5051158;28;20024;-71
2022/06/09 08:08:36;;;;;;;3.95;1.73;;;20.60;73.50;;;;;;5050748;28;20377;-74
2022/06/09 08:11:05;;;;;;;5.72;1.67;;;20.70;73.00;;;;;;5050654;28;20025;-72
2022/06/09 08:13:32;;;;;;;5.10;1.85;;;20.80;71.80;;;;;;5050128;28;20059;-68
2022/06/09 08:15:58;;;;;;;12.13;2.50;;;20.80;71.00;;;;;;5050107;28;20051;-71
2022/06/09 08:18:24;;;;;;;7.75;2.08;;;20.80;71.50;;;;;;5050250;28;20035;-72
2022/06/09 08:20:50;;;;;;;5.10;1.67;;;20.70;71.40;;;;;;5050669;28;20104;-70
2022/06/09 08:23:21;;;;;;;4.30;2.10;;;20.50;72.40;;;;;;5047179;28;20025;-74
2022/06/09 08:25:49;;;;;;;5.75;2.60;;;20.50;74.50;;;;;;5051529;28;20017;-72
2022/06/09 08:28:18;;;;;;;12.48;2.78;;;20.60;73.50;;;;;;5051998;28;20043;-74
2022/06/09 08:30:45;;;;;;;6.22;2.35;;;20.80;72.80;;;;;;5060472;28;20045;-73
2022/06/09 08:33:11;;;;;;;8.25;2.60;;;20.80;71.00;;;;;;5052288;28;20025;-73
2022/06/09 08:35:37;;;;;;;6.35;2.40;;;20.90;71.30;;;;;;5049604;28;20075;-72
2022/06/09 08:38:04;;;;;;;7.95;2.60;;;20.80;70.50;;;;;;5048891;28;20078;-72
2022/06/09 08:40:38;;;;;;;6.20;1.83;;;20.80;72.00;;;;;;5048058;28;20021;-73
2022/06/09 08:43:15;;;;;;;5.22;2.05;;;20.80;72.60;;;;;;5048244;28;20025;-73
2022/06/09 08:45:42;;;;;;;5.50;1.77;;;20.90;72.10;;;;;;5048523;28;20021;-73
2022/06/09 08:48:21;;;;;;;5.10;1.40;;;21.00;71.00;;;;;;5049412;28;20395;-72
2022/06/09 08:51:04;;;;;;;4.65;1.25;;;20.90;69.00;;;;;;5046375;28;20112;-72
2022/06/09 08:53:38;;;;;;;6.13;1.55;;;20.90;70.30;;;;;;5048270;28;20390;-72
2022/06/09 08:56:17;;;;;;;4.07;1.42;;;21.10;66.70;;;;;;5047024;28;20037;-72
2022/06/09 08:58:53;;;;;;;4.32;1.33;;;21.30;66.50;;;;;;5048406;28;20025;-72
2022/06/09 09:01:33;;;;;;;8.20;1.77;;;21.30;67.10;;;;;;5048840;28;20582;-73
2022/06/09 09:04:08;;;;;;;6.85;1.27;;;21.30;67.30;;;;;;5048890;28;20029;-72
2022/06/09 09:06:53;;;;;;;9.07;1.60;;;21.10;67.10;;;;;;5047997;28;20502;-73
2022/06/09 09:09:22;;;;;;;8.43;2.00;;;20.80;67.70;;;;;;5049522;28;20154;-72
2022/06/09 09:12:24;;;;;;;6.38;1.30;;;20.70;69.40;;;;;;5049687;28;20036;-72
2022/06/09 09:14:51;;;;;;;4.00;1.40;;;20.70;70.90;;;;;;5049212;28;20553;-72
2022/06/09 09:17:38;;;;;;;5.07;1.35;;;20.70;70.30;;;;;;5049685;28;20032;-73
2022/06/09 09:20:26;;;;;;;6.10;1.70;;;20.80;70.60;;;;;;5049655;28;20104;-73
2022/06/09 09:23:05;;;;;;;7.95;1.73;;;20.90;72.60;;;;;;5030309;28;20348;-73
2022/06/09 09:25:44;;;;;;;6.10;1.23;;;21.10;72.20;;;;;;5048531;28;20021;-72
2022/06/09 09:28:30;;;;;;;5.40;1.00;;;21.30;69.40;;;;;;5049407;28;20102;-73
2022/06/09 09:31:16;;;;;;;5.85;1.70;;;21.60;70.30;;;;;;5048461;28;20027;-73
2022/06/09 09:33:42;;;;;;;6.43;2.20;;;21.70;68.20;;;;;;5049515;28;20032;-73
2022/06/09 09:36:39;;;;;;;6.38;2.13;;;21.80;68.40;;;;;;5049453;28;20057;-73
2022/06/09 09:39:17;;;;;;;11.85;2.25;;;22.00;68.90;;;;;;5046350;28;20029;-73
2022/06/09 09:41:45;;;;;;;6.75;2.00;;;22.30;69.00;;;;;;5049207;28;20055;-73
2022/06/09 09:44:23;;;;;;;6.82;2.03;;;22.50;64.70;;;;;;5049238;28;20048;-72
2022/06/09 09:46:54;;;;;;;6.82;2.13;;;22.50;64.90;;;;;;5049276;28;20063;-72
2022/06/09 09:49:43;;;;;;;6.72;2.13;;;22.50;65.10;;;;;;5049318;28;20549;-72
2022/06/09 09:52:43;;;;;;;6.70;1.97;;;22.60;66.10;;;;;;5048087;28;20451;-72
2022/06/09 09:55:40;;;;;;;10.93;2.20;;;22.80;66.20;;;;;;5049186;28;20107;-72
2022/06/09 09:58:19;;;;;;;6.70;2.17;;;23.00;63.60;;;;;;5048900;28;20025;-73
2022/06/09 10:00:49;;;;;;;7.13;1.95;;;22.80;64.50;;;;;;5047707;28;20049;-73
2022/06/09 10:09:23;;;;;;;7.43;2.05;;;22.10;66.60;;;;;;5048707;28;20482;-72
2022/06/09 10:11:54;;;;;;;5.38;1.30;;;21.80;69.40;;;;;;5048847;28;20028;-73
2022/06/09 10:14:38;;;;;;;7.32;2.17;;;21.60;71.00;;;;;;5028889;28;20032;-73
2022/06/09 10:17:21;;;;;;;15.10;1.77;;;21.50;70.70;;;;;;5043033;28;20076;-72
2022/06/09 10:19:56;;;;;;;5.32;1.50;;;21.30;70.40;;;;;;5047828;28;20025;-73
2022/06/09 10:22:26;;;;;;;3.70;1.13;;;21.10;69.70;;;;;;5047145;28;20067;-73
2022/06/09 10:25:02;;;;;;;10.30;2.80;;;21.00;71.10;;;;;;5046787;28;20021;-73
2022/06/09 10:27:40;;;;;;;5.32;1.45;;;20.90;69.60;;;;;;5043034;28;20557;-73
2022/06/09 10:30:27;;;;;;;5.65;1.67;;;20.90;71.50;;;;;;5038208;28;20036;-72
2022/06/09 10:33:10;;;;;;;6.75;1.92;;;20.80;70.90;;;;;;5038389;28;20025;-75
2022/06/09 10:35:44;;;;;;;7.38;1.92;;;20.70;69.30;;;;;;5037562;28;20049;-73
2022/06/09 10:38:20;;;;;;;7.30;1.38;;;20.60;69.00;;;;;;5035845;28;20436;-74
2022/06/09 10:40:53;;;;;;;8.15;2.00;;;20.60;68.70;;;;;;5035802;28;20348;-74
2022/06/09 10:43:45;;;;;;;5.45;1.52;;;20.50;67.80;;;;;;5034048;28;20034;-73
2022/06/09 10:46:11;;;;;;;10.27;2.20;;;20.60;68.50;;;;;;5036198;28;20164;-73
2022/06/09 10:55:46;;;;;;;6.32;1.50;;;20.80;67.00;;;;;;5039007;28;20681;-73
2022/06/09 10:58:18;;;;;;;4.82;1.38;;;21.30;68.20;;;;;;4993349;28;20612;-73
2022/06/09 11:00:49;;;;;;;6.90;1.15;;;21.70;66.00;;;;;;5034549;28;20053;-73
2022/06/09 11:03:21;;;;;;;4.90;1.42;;;22.10;62.80;;;;;;5035069;28;20128;-74
2022/06/09 11:06:14;;;;;;;4.82;1.20;;;22.50;61.90;;;;;;5034354;28;20029;-74
2022/06/09 11:08:54;;;;;;;6.28;1.75;;;22.80;58.30;;;;;;5034193;28;20100;-73
2022/06/09 11:11:31;;;;;;;;;;;23.00;58.80;;;;;;5033728;28;20033;-72
2022/06/09 11:14:17;;;;;;;5.85;1.55;;;23.20;57.80;;;;;;5033087;28;20332;-73
2022/06/09 11:17:34;;;;;;;5.00;1.63;;;23.30;59.10;;;;;;5034339;28;20033;-73
2022/06/09 11:20:19;;;;;;;7.32;1.58;;;23.20;59.20;;;;;;5034439;28;20109;-73
2022/06/09 11:23:18;;;;;;;5.40;1.20;;;23.30;57.90;;;;;;5036237;28;20028;-74
2022/06/09 11:26:12;;;;;;;5.65;1.20;;;23.40;58.80;;;;;;5032225;28;20041;-73
2022/06/09 11:28:45;;;;;;;11.02;1.73;;;23.30;58.50;;;;;;5036066;28;20797;-73
2022/06/09 11:31:17;;;;;;;6.40;1.15;;;22.90;57.70;;;;;;5037506;28;20044;-74
2022/06/09 11:34:26;;;;;;;7.95;1.65;;;22.70;57.70;;;;;;5035338;28;20119;-73
2022/06/09 11:36:59;;;;;;;8.00;1.10;;;22.40;59.20;;;;;;5008839;28;20088;-73
2022/06/09 11:39:37;;;;;;;3.17;0.98;;;22.30;58.20;;;;;;5037639;28;20478;-73
2022/06/09 11:42:15;;;;;;;3.42;1.10;;;22.10;57.80;;;;;;5039864;28;20032;-73
2022/06/09 11:44:43;;;;;;;5.85;1.23;;;22.20;59.90;;;;;;5037756;28;20088;-72
2022/06/09 11:47:13;;;;;;;5.03;0.90;;;22.50;57.20;;;;;;5038473;28;20090;-73
2022/06/09 11:49:52;;;;;;;7.15;1.25;;;22.80;57.00;;;;;;5040285;28;20391;-73
2022/06/09 11:52:28;;;;;;;5.28;0.93;;;23.00;56.00;;;;;;5038900;28;20025;-74
2022/06/09 11:54:58;;;;;;;3.95;0.80;;;22.90;54.60;;;;;;5039048;28;20033;-73
2022/06/09 11:57:41;;;;;;;4.78;1.23;;;22.60;55.40;;;;;;5038864;28;20025;-72
2022/06/09 12:00:19;;;;;;;3.95;0.77;;;22.60;54.00;;;;;;5037581;28;20112;-72
2022/06/09 12:03:04;;;;;;;6.10;1.23;;;23.10;56.60;;;;;;5037664;28;20021;-72
2022/06/09 12:05:45;;;;;;;8.02;1.80;;;23.30;52.90;;;;;;5040462;28;20025;-72
2022/06/09 12:08:29;;;;;;;5.20;0.88;;;23.50;53.00;;;;;;5037195;28;20025;-72
2022/06/09 12:11:05;;;;;;;4.95;1.88;;;23.80;53.40;;;;;;5040062;28;20029;-72
2022/06/09 12:14:00;;;;;;;5.25;1.42;;;23.80;52.20;;;;;;5040449;28;20029;-72
2022/06/09 12:16:47;;;;;;;4.40;0.88;;;23.80;51.30;;;;;;5029026;28;20033;-72
2022/06/09 12:19:13;;;;;;;4.15;0.70;;;23.90;55.00;;;;;;5039344;28;20025;-72
2022/06/09 12:21:42;;;;;;;11.65;1.30;;;24.00;51.50;;;;;;5037507;28;20033;-73
2022/06/09 12:24:13;;;;;;;6.90;1.42;;;24.30;50.80;;;;;;5039016;28;20613;-73
2022/06/09 12:26:45;;;;;;;4.85;1.45;;;24.60;53.80;;;;;;5034505;28;20056;-73
2022/06/09 12:29:40;;;;;;;6.35;1.23;;;24.80;48.30;;;;;;5038706;28;20032;-73
2022/06/09 12:32:09;;;;;;;5.80;1.25;;;25.00;50.10;;;;;;5038157;28;20065;-73
2022/06/09 12:34:38;;;;;;;3.13;0.77;;;25.20;47.60;;;;;;5033357;28;20498;-73
2022/06/09 12:37:05;;;;;;;8.23;1.67;;;25.30;46.90;;;;;;5038969;28;20033;-71
2022/06/09 12:39:39;;;;;;;6.20;1.55;;;25.10;47.00;;;;;;5036783;28;20108;-73
2022/06/09 12:42:31;;;;;;;8.07;1.60;;;25.00;48.30;;;;;;5034881;28;20043;-71
2022/06/09 12:45:17;;;;;;;7.32;1.23;;;25.20;47.00;;;;;;5021660;28;20025;-73
2022/06/09 12:48:02;;;;;;;5.95;1.35;;;25.30;49.80;;;;;;5037749;28;20476;-72
2022/06/09 12:50:43;;;;;;;4.60;1.08;;;25.30;50.00;;;;;;5035171;28;20028;-73
2022/06/09 12:53:19;;;;;;;7.30;0.98;;;25.10;51.50;;;;;;5037935;28;20028;-73
2022/06/09 12:55:57;;;;;;;8.32;1.55;;;24.90;47.40;;;;;;5038345;28;20029;-73
2022/06/09 12:58:46;;;;;;;4.32;0.88;;;24.60;47.90;;;;;;5036713;28;20037;-73
2022/06/09 13:01:16;;;;;;;6.57;1.77;;;24.50;51.50;;;;;;5038056;28;20017;-73
2022/06/09 13:03:44;;;;;;;5.43;1.10;;;24.60;49.60;;;;;;5034418;28;20017;-72
2022/06/09 13:06:24;;;;;;;6.82;1.25;;;24.60;48.20;;;;;;5037151;28;20079;-72
2022/06/09 13:08:58;;;;;;;7.90;1.27;;;24.60;53.00;;;;;;5035029;28;20063;-72
2022/06/09 13:14:24;;;;;;;6.13;1.40;;;25.00;47.70;;;;;;5038649;28;20140;-72
2022/06/09 13:16:54;;;;;;;5.43;1.23;;;25.20;52.60;;;;;;5039604;28;20029;-72
2022/06/09 13:19:25;;;;;;;6.32;1.35;;;25.10;51.50;;;;;;5037570;28;20076;-73
2022/06/09 13:21:52;;;;;;;6.93;1.58;;;24.90;49.60;;;;;;5035165;28;20460;-72
2022/06/09 13:24:31;;;;;;;7.28;1.40;;;24.70;48.80;;;;;;5036109;28;20162;-73
2022/06/09 13:26:57;;;;;;;6.85;1.60;;;24.50;49.70;;;;;;5041704;28;20028;-73
2022/06/09 13:29:27;;;;;;;3.45;1.20;;;24.40;50.60;;;;;;5040928;28;20067;-73